Time;durP1;ratioP1;P1;durP2;ratioP2;P2;SDS_P1;SDS_P2;PMS_P1;PMS_P2;Temp;Humidity;BMP_temperature;BMP_pressure;BME280_temperature;BME280_humidity;BME280_pressure;Samples;Min_cycle;Max_cycle;Signal;HPM_P1;HPM_P2
2023/09/27 00:00:09;;;;;;;6.75;1.83;;;12.30;99.90;;;;;;4959929;28;20219;-87
2023/09/27 00:02:41;;;;;;;12.52;2.63;;;12.40;99.90;;;;;;4964316;28;20204;-87
2023/09/27 00:05:10;;;;;;;7.03;2.35;;;12.30;99.90;;;;;;4970520;28;20236;-88
2023/09/27 00:07:40;;;;;;;5.88;1.90;;;12.40;99.90;;;;;;4970697;28;20207;-87
2023/09/27 00:10:09;;;;;;;8.15;2.15;;;12.40;99.90;;;;;;4964051;28;20218;-85
2023/09/27 00:12:38;;;;;;;4.97;2.38;;;12.50;99.90;;;;;;4968638;28;20203;-88
2023/09/27 00:15:07;;;;;;;5.03;2.65;;;12.40;99.90;;;;;;4967081;28;20187;-87
2023/09/27 00:17:35;;;;;;;3.58;2.25;;;12.50;99.90;;;;;;4976221;28;20188;-88
2023/09/27 00:20:13;;;;;;;7.53;2.50;;;12.50;99.90;;;;;;4957982;28;20236;-86
2023/09/27 00:22:42;;;;;;;5.43;2.30;;;12.50;99.90;;;;;;4961243;28;20196;-88
2023/09/27 00:25:10;;;;;;;4.30;2.38;;;12.50;99.90;;;;;;4981858;28;20184;-88
2023/09/27 00:27:38;;;;;;;4.40;2.60;;;12.60;99.90;;;;;;4974634;28;20725;-88
2023/09/27 00:30:07;;;;;;;9.57;2.50;;;12.50;99.90;;;;;;4979423;28;20187;-85
2023/09/27 00:32:36;;;;;;;6.50;2.20;;;12.40;99.90;;;;;;4982523;28;20937;-84
2023/09/27 00:35:04;;;;;;;8.15;2.30;;;12.40;99.90;;;;;;4971010;28;20203;-88
2023/09/27 00:37:34;;;;;;;8.45;2.55;;;12.50;99.90;;;;;;4979952;28;20188;-88
2023/09/27 00:40:03;;;;;;;6.00;2.53;;;12.50;99.90;;;;;;4963646;28;20675;-86
2023/09/27 00:42:31;;;;;;;7.20;2.97;;;12.50;99.90;;;;;;4966919;28;20184;-88
2023/09/27 00:44:59;;;;;;;4.22;2.40;;;12.50;99.90;;;;;;4985670;28;20191;-83
2023/09/27 00:47:26;;;;;;;5.30;2.90;;;12.50;99.90;;;;;;4969884;28;20196;-87
2023/09/27 00:49:54;;;;;;;5.35;2.50;;;12.50;99.90;;;;;;4962643;28;20258;-88
2023/09/27 00:52:22;;;;;;;5.93;2.70;;;12.50;99.90;;;;;;4982120;28;20214;-89
2023/09/27 00:54:51;;;;;;;4.72;2.30;;;12.40;99.90;;;;;;4963642;28;20259;-86
2023/09/27 00:57:19;;;;;;;4.38;2.20;;;12.40;99.90;;;;;;4974522;28;20214;-86
2023/09/27 00:59:47;;;;;;;5.55;2.78;;;12.40;99.90;;;;;;4958565;28;20203;-87
2023/09/27 01:02:16;;;;;;;6.53;3.05;;;12.40;99.90;;;;;;4970040;28;20728;-87
2023/09/27 01:04:45;;;;;;;9.02;3.08;;;12.40;99.90;;;;;;4986665;28;20203;-87
2023/09/27 01:07:13;;;;;;;9.80;3.13;;;12.40;99.90;;;;;;4967535;28;20191;-87
2023/09/27 01:09:41;;;;;;;7.50;3.00;;;12.40;99.90;;;;;;4963399;28;20875;-86
2023/09/27 01:12:08;;;;;;;7.20;3.08;;;12.40;99.90;;;;;;4968339;28;20210;-86
2023/09/27 01:14:36;;;;;;;4.28;2.67;;;12.30;99.90;;;;;;4975146;28;20817;-88
2023/09/27 01:17:09;;;;;;;4.28;2.55;;;12.30;99.90;;;;;;4969975;28;20200;-85
2023/09/27 01:19:40;;;;;;;9.02;3.20;;;12.30;99.90;;;;;;4986351;28;20240;-88
2023/09/27 01:22:08;;;;;;;6.07;3.15;;;12.20;99.90;;;;;;4981167;28;20195;-87
2023/09/27 01:24:37;;;;;;;5.78;2.45;;;12.20;99.90;;;;;;4984354;28;20717;-86
2023/09/27 01:27:09;;;;;;;4.35;2.50;;;12.30;99.90;;;;;;4974947;28;20199;-87
2023/09/27 01:29:37;;;;;;;6.22;2.33;;;12.30;99.90;;;;;;4953587;28;20839;-85
2023/09/27 01:32:05;;;;;;;4.68;2.67;;;12.10;99.90;;;;;;4962999;28;20207;-89
2023/09/27 01:34:33;;;;;;;4.97;2.60;;;12.20;99.90;;;;;;4958065;28;20796;-86
2023/09/27 01:37:01;;;;;;;4.57;2.17;;;12.20;99.90;;;;;;4966443;28;20184;-84
2023/09/27 01:39:30;;;;;;;5.18;3.08;;;12.20;99.90;;;;;;4974764;28;20250;-86
2023/09/27 01:41:58;;;;;;;6.63;2.50;;;12.20;99.90;;;;;;4990087;28;20187;-88
2023/09/27 01:44:25;;;;;;;6.18;2.47;;;12.10;99.90;;;;;;4986441;28;20183;-87
2023/09/27 01:46:53;;;;;;;4.45;2.47;;;12.10;99.90;;;;;;4958129;28;20552;-88
2023/09/27 01:49:22;;;;;;;5.68;2.10;;;12.10;99.90;;;;;;4967354;28;20263;-88
2023/09/27 01:51:50;;;;;;;5.63;2.33;;;12.10;99.90;;;;;;4990361;28;20204;-87
2023/09/27 01:54:17;;;;;;;5.57;2.15;;;12.10;99.90;;;;;;4969604;28;20188;-88
2023/09/27 01:56:45;;;;;;;9.27;2.60;;;12.20;99.90;;;;;;4975910;28;20551;-87
2023/09/27 01:59:13;;;;;;;6.10;2.42;;;12.10;99.90;;;;;;4975444;28;20573;-85
2023/09/27 02:01:41;;;;;;;6.45;2.75;;;12.10;99.90;;;;;;4959044;28;20578;-87
2023/09/27 02:04:09;;;;;;;5.82;2.42;;;12.10;99.90;;;;;;4984270;28;20534;-89
2023/09/27 02:06:37;;;;;;;5.80;2.40;;;12.20;99.90;;;;;;4972164;28;20191;-88
2023/09/27 02:09:05;;;;;;;5.32;2.55;;;12.10;99.90;;;;;;4984491;28;21099;-86
2023/09/27 02:11:33;;;;;;;7.10;2.63;;;12.10;99.90;;;;;;4957089;28;20726;-88
2023/09/27 02:14:04;;;;;;;3.90;2.10;;;12.10;99.90;;;;;;4967703;28;20270;-85
2023/09/27 02:16:33;;;;;;;5.03;2.50;;;12.00;99.90;;;;;;4983460;28;20196;-86
2023/09/27 02:19:04;;;;;;;6.13;2.20;;;12.00;99.90;;;;;;4973323;28;20188;-86
2023/09/27 02:21:32;;;;;;;7.50;2.60;;;12.00;99.90;;;;;;4945776;28;20716;-88
2023/09/27 02:24:00;;;;;;;5.25;3.00;;;12.00;99.90;;;;;;4968278;28;20202;-87
2023/09/27 02:26:28;;;;;;;8.55;2.95;;;12.00;99.90;;;;;;4975429;28;20318;-82
2023/09/27 02:28:55;;;;;;;6.13;2.50;;;12.00;99.90;;;;;;4976174;28;20202;-87
2023/09/27 02:31:23;;;;;;;4.13;2.15;;;11.90;99.90;;;;;;4986450;28;20234;-88
2023/09/27 02:33:52;;;;;;;5.85;2.67;;;11.80;99.90;;;;;;4980075;28;20205;-89
2023/09/27 02:36:20;;;;;;;11.00;2.80;;;11.90;99.90;;;;;;4957407;28;20639;-85
2023/09/27 02:38:47;;;;;;;5.28;2.58;;;11.80;99.90;;;;;;4971211;28;20559;-83
2023/09/27 02:41:16;;;;;;;6.13;2.35;;;11.80;99.90;;;;;;4963512;28;20274;-84
2023/09/27 02:43:43;;;;;;;9.02;3.25;;;11.80;99.90;;;;;;4967345;28;20266;-86
2023/09/27 02:46:11;;;;;;;7.70;2.95;;;11.80;99.90;;;;;;4988751;28;20207;-86
2023/09/27 02:48:39;;;;;;;3.28;2.30;;;11.70;99.90;;;;;;4960966;28;20183;-87
2023/09/27 02:51:07;;;;;;;8.73;2.92;;;11.70;99.90;;;;;;4967459;28;20284;-87
2023/09/27 02:53:34;;;;;;;5.82;2.60;;;11.70;99.90;;;;;;4972285;28;20200;-86
2023/09/27 02:56:05;;;;;;;6.65;2.60;;;11.70;99.90;;;;;;4985792;28;20191;-85
2023/09/27 02:58:32;;;;;;;4.38;2.33;;;11.80;99.90;;;;;;4966747;28;20804;-86
2023/09/27 03:01:00;;;;;;;2.85;1.98;;;11.80;99.90;;;;;;4987530;28;20200;-87
2023/09/27 03:03:30;;;;;;;5.20;2.28;;;11.80;99.90;;;;;;4957946;28;20238;-86
2023/09/27 03:05:58;;;;;;;6.82;2.40;;;11.80;99.90;;;;;;4974297;28;20202;-84
2023/09/27 03:08:26;;;;;;;5.40;2.17;;;11.80;99.90;;;;;;4980852;28;20737;-87
2023/09/27 03:10:54;;;;;;;6.72;2.90;;;11.70;99.90;;;;;;4968092;28;20195;-84
2023/09/27 03:13:22;;;;;;;4.10;2.38;;;11.70;99.90;;;;;;4965820;28;20649;-85
2023/09/27 03:15:56;;;;;;;3.35;2.40;;;11.70;99.90;;;;;;4961198;28;20211;-87
2023/09/27 03:18:24;;;;;;;8.27;2.35;;;11.70;99.90;;;;;;4975163;28;20207;-89
2023/09/27 03:20:52;;;;;;;4.55;2.55;;;11.80;99.90;;;;;;4992637;28;20219;-84
2023/09/27 03:23:20;;;;;;;4.55;2.70;;;11.80;99.90;;;;;;4958537;28;20200;-88
2023/09/27 03:25:49;;;;;;;6.45;2.20;;;11.70;99.90;;;;;;4974839;28;20188;-88
2023/09/27 03:28:17;;;;;;;4.40;1.98;;;11.60;99.90;;;;;;4959308;28;20207;-87
2023/09/27 03:30:46;;;;;;;5.75;2.30;;;11.70;99.90;;;;;;4946572;28;20219;-85
2023/09/27 03:33:14;;;;;;;7.90;3.10;;;11.60;99.90;;;;;;4964161;28;20278;-87
2023/09/27 03:35:42;;;;;;;4.80;2.35;;;11.40;99.90;;;;;;4990389;28;20270;-86
2023/09/27 03:38:11;;;;;;;4.30;2.28;;;11.40;99.90;;;;;;4968919;28;20187;-87
2023/09/27 03:40:42;;;;;;;3.13;2.30;;;11.50;99.90;;;;;;4975401;28;20267;-85
2023/09/27 03:43:10;;;;;;;7.97;2.72;;;11.50;99.90;;;;;;4962938;28;20198;-84
2023/09/27 03:45:37;;;;;;;5.38;2.90;;;11.50;99.90;;;;;;4964366;28;20658;-82
2023/09/27 03:48:07;;;;;;;3.35;2.35;;;11.50;99.90;;;;;;4958957;28;20200;-88
2023/09/27 03:50:35;;;;;;;8.18;2.53;;;11.50;99.90;;;;;;4968364;28;20214;-89
2023/09/27 03:53:04;;;;;;;4.97;2.15;;;11.50;99.90;;;;;;4969768;28;20275;-88
2023/09/27 03:55:32;;;;;;;3.55;2.03;;;11.30;99.90;;;;;;4963677;28;20275;-88
2023/09/27 03:58:00;;;;;;;8.88;2.35;;;11.40;99.90;;;;;;4985850;28;20191;-89
2023/09/27 04:00:28;;;;;;;6.68;2.30;;;11.30;99.90;;;;;;4964284;28;20186;-86
2023/09/27 04:02:56;;;;;;;5.72;2.05;;;11.30;99.90;;;;;;4967839;28;20211;-88
2023/09/27 04:05:26;;;;;;;5.22;2.28;;;11.30;99.90;;;;;;4980159;28;20194;-86
2023/09/27 04:07:54;;;;;;;4.90;2.70;;;11.40;99.90;;;;;;4989187;28;20198;-89
2023/09/27 04:10:22;;;;;;;7.18;2.88;;;11.40;99.90;;;;;;4981579;28;20226;-88
2023/09/27 04:12:50;;;;;;;4.07;2.30;;;11.40;99.90;;;;;;4981007;28;20195;-88
2023/09/27 04:15:18;;;;;;;4.90;2.20;;;11.40;99.90;;;;;;4968347;28;20187;-88
2023/09/27 04:17:46;;;;;;;4.28;2.67;;;11.40;99.90;;;;;;4985436;28;20190;-86
2023/09/27 04:20:15;;;;;;;7.53;2.83;;;11.30;99.90;;;;;;4982295;28;20247;-88
2023/09/27 04:22:45;;;;;;;5.22;2.63;;;11.20;99.90;;;;;;4966007;28;20666;-86
2023/09/27 04:25:14;;;;;;;5.10;2.55;;;11.20;99.90;;;;;;4980493;28;20250;-88
2023/09/27 04:27:45;;;;;;;7.72;2.63;;;11.40;99.90;;;;;;4954272;28;20200;-88
2023/09/27 04:30:14;;;;;;;4.68;2.17;;;11.30;99.90;;;;;;4966734;28;20207;-88
2023/09/27 04:32:43;;;;;;;3.25;2.03;;;11.00;99.90;;;;;;4981650;28;20264;-86
2023/09/27 04:35:12;;;;;;;5.45;2.60;;;11.10;99.90;;;;;;4959882;28;20276;-87
2023/09/27 04:37:40;;;;;;;7.20;2.85;;;11.20;99.90;;;;;;4965404;28;20187;-89
2023/09/27 04:40:11;;;;;;;5.55;2.67;;;11.10;99.90;;;;;;4993462;28;20714;-89
2023/09/27 04:42:43;;;;;;;7.57;3.10;;;11.10;99.90;;;;;;4959056;28;20262;-88
2023/09/27 04:45:12;;;;;;;6.72;2.60;;;11.00;99.90;;;;;;4991118;28;20418;-86
2023/09/27 04:47:44;;;;;;;7.25;2.50;;;11.10;99.90;;;;;;4974820;28;20227;-82
2023/09/27 04:50:13;;;;;;;6.43;2.63;;;11.20;99.90;;;;;;4974836;28;20197;-86
2023/09/27 04:52:41;;;;;;;4.82;3.08;;;11.30;99.90;;;;;;4991107;28;20293;-88
2023/09/27 04:55:10;;;;;;;6.97;2.60;;;11.30;99.90;;;;;;4982061;28;20195;-87
2023/09/27 04:57:37;;;;;;;5.50;2.42;;;11.20;99.90;;;;;;4981950;28;20235;-87
2023/09/27 05:00:11;;;;;;;5.85;3.17;;;11.20;99.90;;;;;;4980529;28;20200;-89
2023/09/27 05:02:39;;;;;;;6.95;2.30;;;11.20;99.90;;;;;;4972395;28;20225;-88
2023/09/27 05:05:08;;;;;;;5.65;2.70;;;11.20;99.90;;;;;;4964984;28;20215;-87
2023/09/27 05:07:36;;;;;;;3.92;2.38;;;11.20;99.90;;;;;;4988802;28;20198;-90
2023/09/27 05:10:04;;;;;;;8.07;3.15;;;11.20;99.90;;;;;;4967523;28;20191;-89
2023/09/27 05:12:31;;;;;;;3.15;2.10;;;11.40;99.90;;;;;;4973843;28;20195;-90
2023/09/27 05:14:59;;;;;;;5.05;2.90;;;11.40;99.90;;;;;;4980847;28;20176;-90
2023/09/27 05:17:27;;;;;;;4.50;2.83;;;11.40;99.90;;;;;;4971325;28;20223;-90
2023/09/27 05:19:55;;;;;;;4.22;2.63;;;11.40;99.90;;;;;;4970162;28;20263;-88
2023/09/27 05:22:22;;;;;;;4.55;2.47;;;11.40;99.90;;;;;;4964961;28;20211;-89
2023/09/27 05:24:50;;;;;;;6.63;3.47;;;11.40;99.90;;;;;;4976974;28;20191;-87
2023/09/27 05:27:18;;;;;;;4.97;3.08;;;11.40;99.90;;;;;;4987497;28;20191;-88
2023/09/27 05:29:46;;;;;;;6.65;3.22;;;11.40;99.90;;;;;;4969314;28;20199;-89
2023/09/27 05:32:14;;;;;;;9.13;4.13;;;11.50;99.90;;;;;;4979173;28;20203;-85
2023/09/27 05:34:43;;;;;;;7.95;3.65;;;11.50;99.90;;;;;;4977936;28;20211;-87
2023/09/27 05:37:10;;;;;;;7.07;3.60;;;11.50;99.90;;;;;;4976045;28;20202;-88
2023/09/27 05:39:38;;;;;;;4.97;3.33;;;11.50;99.90;;;;;;4959304;28;20207;-89
2023/09/27 05:42:06;;;;;;;6.40;3.47;;;11.60;99.90;;;;;;4984645;28;20687;-89
2023/09/27 05:44:33;;;;;;;5.38;3.33;;;11.60;99.90;;;;;;4984972;28;20188;-87
2023/09/27 05:47:01;;;;;;;5.90;3.53;;;11.60;99.90;;;;;;4964235;28;20184;-89
2023/09/27 05:49:31;;;;;;;4.82;3.25;;;11.60;99.90;;;;;;4974290;28;20191;-89
2023/09/27 05:51:58;;;;;;;6.45;3.72;;;11.70;99.90;;;;;;4982753;28;20192;-87
2023/09/27 05:54:26;;;;;;;5.60;3.60;;;11.70;99.90;;;;;;4966047;28;20203;-88
2023/09/27 05:56:55;;;;;;;4.95;3.10;;;11.70;99.90;;;;;;4966846;28;20276;-90
2023/09/27 05:59:24;;;;;;;5.25;3.55;;;11.80;99.90;;;;;;4956527;28;20671;-88
2023/09/27 06:01:52;;;;;;;6.05;3.33;;;11.80;99.90;;;;;;4973314;28;20211;-88
2023/09/27 06:04:22;;;;;;;8.15;3.92;;;11.80;99.90;;;;;;4970079;28;20673;-88
2023/09/27 06:06:50;;;;;;;8.07;4.40;;;11.80;99.90;;;;;;4964627;28;20195;-88
2023/09/27 06:09:18;;;;;;;8.88;4.25;;;11.90;99.90;;;;;;4958458;28;20222;-89
2023/09/27 06:11:46;;;;;;;6.55;3.50;;;11.90;99.90;;;;;;4961878;28;20192;-88
2023/09/27 06:14:14;;;;;;;6.25;3.53;;;12.00;99.90;;;;;;4982784;28;20207;-88
2023/09/27 06:16:44;;;;;;;7.40;3.35;;;12.00;99.90;;;;;;4964650;28;20291;-88
2023/09/27 06:19:12;;;;;;;8.73;4.63;;;12.10;99.90;;;;;;4974018;28;20226;-87
2023/09/27 06:21:40;;;;;;;13.98;4.55;;;12.10;99.90;;;;;;4986867;28;20184;-88
2023/09/27 06:24:08;;;;;;;14.07;5.30;;;12.10;99.90;;;;;;4981824;28;20199;-87
2023/09/27 06:26:36;;;;;;;13.18;5.28;;;12.20;99.90;;;;;;4965094;28;20691;-87
2023/09/27 06:29:04;;;;;;;10.95;4.97;;;12.20;99.90;;;;;;4965610;28;20192;-89
2023/09/27 06:31:34;;;;;;;9.80;4.60;;;12.20;99.90;;;;;;4983423;28;20199;-88
2023/09/27 06:34:03;;;;;;;11.07;4.70;;;12.30;99.90;;;;;;4969201;28;20217;-88
2023/09/27 06:36:34;;;;;;;13.30;5.07;;;12.30;99.90;;;;;;4982672;28;20187;-85
2023/09/27 06:39:03;;;;;;;11.52;4.70;;;12.40;99.90;;;;;;4966365;28;20192;-88
2023/09/27 06:41:30;;;;;;;14.32;4.65;;;12.40;99.90;;;;;;4961443;28;20196;-88
2023/09/27 06:44:00;;;;;;;13.93;4.88;;;12.50;99.90;;;;;;4962982;28;20199;-87
2023/09/27 06:46:28;;;;;;;10.00;4.32;;;12.50;99.90;;;;;;4963091;28;20206;-87
2023/09/27 06:49:14;;;;;;;9.05;4.40;;;12.60;99.90;;;;;;4978100;28;20188;-89
2023/09/27 06:51:43;;;;;;;8.73;4.28;;;12.70;99.90;;;;;;4963051;28;20239;-87
2023/09/27 06:54:11;;;;;;;6.93;4.25;;;12.70;99.90;;;;;;4964133;28;20208;-86
2023/09/27 06:56:39;;;;;;;11.23;4.35;;;12.80;99.90;;;;;;4981937;28;20941;-87
2023/09/27 06:59:07;;;;;;;6.38;3.75;;;12.80;99.90;;;;;;4965397;28;20211;-85
2023/09/27 07:01:35;;;;;;;6.03;3.70;;;12.80;99.90;;;;;;4969516;28;20184;-88
2023/09/27 07:04:03;;;;;;;7.90;4.15;;;12.80;99.90;;;;;;4969776;28;20761;-88
2023/09/27 07:06:31;;;;;;;6.18;3.97;;;12.90;99.90;;;;;;4963069;28;20196;-87
2023/09/27 07:08:59;;;;;;;6.85;3.88;;;13.00;99.90;;;;;;4963404;28;20200;-88
2023/09/27 07:11:27;;;;;;;7.57;4.15;;;13.00;99.90;;;;;;4973541;28;20566;-87
2023/09/27 07:13:55;;;;;;;6.28;3.70;;;13.00;99.90;;;;;;4985079;28;20700;-86
2023/09/27 07:16:26;;;;;;;5.05;3.97;;;13.10;99.90;;;;;;4979480;28;20647;-88
2023/09/27 07:19:03;;;;;;;7.00;3.72;;;13.20;99.90;;;;;;4970116;28;20176;-88
2023/09/27 07:21:31;;;;;;;5.28;3.60;;;13.30;99.90;;;;;;4947463;28;20214;-88
2023/09/27 07:23:59;;;;;;;5.75;3.83;;;13.30;99.90;;;;;;4965405;28;20206;-88
2023/09/27 07:26:27;;;;;;;7.10;4.00;;;13.40;99.90;;;;;;4962816;28;20970;-87
2023/09/27 07:28:54;;;;;;;5.28;3.83;;;13.50;99.90;;;;;;4980127;28;20200;-88
2023/09/27 07:31:23;;;;;;;6.50;4.32;;;13.50;99.90;;;;;;4954188;28;20204;-87
2023/09/27 07:33:52;;;;;;;8.10;4.55;;;13.60;99.90;;;;;;4951118;28;20207;-87
2023/09/27 07:36:24;;;;;;;11.07;4.65;;;13.70;99.90;;;;;;4976290;28;20194;-87
2023/09/27 07:38:52;;;;;;;8.10;4.20;;;13.70;99.90;;;;;;4963955;28;20243;-88
2023/09/27 07:41:20;;;;;;;7.15;4.38;;;13.80;99.90;;;;;;4981287;28;20188;-89
2023/09/27 07:43:48;;;;;;;10.23;4.18;;;13.90;99.90;;;;;;4962439;28;20541;-86
2023/09/27 07:46:17;;;;;;;5.55;4.00;;;14.00;99.90;;;;;;4969601;28;20195;-88
2023/09/27 07:48:45;;;;;;;5.68;3.65;;;14.00;99.90;;;;;;4981064;28;20679;-87
2023/09/27 07:51:14;;;;;;;6.75;4.38;;;14.00;99.90;;;;;;4981492;28;20194;-89
2023/09/27 07:53:42;;;;;;;8.45;4.40;;;14.00;99.90;;;;;;4970956;28;20219;-87
2023/09/27 07:56:21;;;;;;;7.70;4.03;;;14.20;99.90;;;;;;4957145;28;20533;-87
2023/09/27 07:58:51;;;;;;;6.95;4.00;;;14.20;99.90;;;;;;4977535;28;20187;-88
2023/09/27 08:01:20;;;;;;;6.07;3.80;;;14.20;99.90;;;;;;4962695;28;20241;-89
2023/09/27 08:03:52;;;;;;;8.15;4.13;;;14.30;99.90;;;;;;4970428;28;20200;-88
2023/09/27 08:06:20;;;;;;;6.82;4.10;;;14.30;99.90;;;;;;4969124;28;20199;-88
2023/09/27 08:08:51;;;;;;;6.32;4.05;;;14.40;99.90;;;;;;4964085;28;20196;-89
2023/09/27 08:11:19;;;;;;;10.13;4.85;;;14.50;99.90;;;;;;4981515;28;20194;-89
2023/09/27 08:13:47;;;;;;;6.03;4.13;;;14.60;99.90;;;;;;4981291;28;20195;-87
2023/09/27 08:16:15;;;;;;;9.98;4.82;;;14.70;99.90;;;;;;4980225;28;20868;-89
2023/09/27 08:18:43;;;;;;;6.93;4.20;;;14.70;99.90;;;;;;4955862;28;20282;-89
2023/09/27 08:21:10;;;;;;;8.00;4.40;;;14.70;99.90;;;;;;4964259;28;20224;-88
2023/09/27 08:23:39;;;;;;;9.90;4.65;;;14.80;99.90;;;;;;4977667;28;20195;-87
2023/09/27 08:26:12;;;;;;;13.60;4.93;;;14.90;99.90;;;;;;4962243;28;20279;-89
2023/09/27 08:28:40;;;;;;;10.15;4.82;;;15.00;99.90;;;;;;4962279;28;20195;-87
2023/09/27 08:31:08;;;;;;;7.82;4.72;;;15.10;99.90;;;;;;4962066;28;20699;-89
2023/09/27 08:33:36;;;;;;;10.48;5.45;;;15.20;99.90;;;;;;4969093;28;20234;-88
2023/09/27 08:36:05;;;;;;;11.02;5.38;;;15.20;99.90;;;;;;4977246;28;20194;-88
2023/09/27 08:38:33;;;;;;;10.77;5.38;;;15.40;99.90;;;;;;4945819;28;20187;-86
2023/09/27 08:41:03;;;;;;;7.57;5.00;;;15.50;99.90;;;;;;4979688;28;20180;-89
2023/09/27 08:43:33;;;;;;;10.35;5.38;;;15.60;99.90;;;;;;4968716;28;20568;-87
2023/09/27 08:46:02;;;;;;;7.85;5.00;;;15.70;99.90;;;;;;4973829;28;20184;-88
2023/09/27 08:48:31;;;;;;;8.35;5.03;;;15.70;99.90;;;;;;4982771;28;20190;-88
2023/09/27 08:51:04;;;;;;;9.13;5.25;;;15.70;99.90;;;;;;4979102;28;20188;-87
2023/09/27 08:53:34;;;;;;;9.95;5.72;;;15.90;99.90;;;;;;4979899;28;20200;-87
2023/09/27 08:56:04;;;;;;;10.90;5.80;;;16.10;99.90;;;;;;4965398;28;20206;-88
2023/09/27 08:58:34;;;;;;;10.32;6.05;;;16.20;99.90;;;;;;4963484;28;20214;-89
2023/09/27 09:01:03;;;;;;;12.50;6.35;;;16.20;99.90;;;;;;4972589;28;20670;-87
2023/09/27 09:03:32;;;;;;;12.52;6.72;;;16.30;99.90;;;;;;4948401;28;20195;-88
2023/09/27 09:06:04;;;;;;;11.55;6.55;;;16.40;99.90;;;;;;4963747;28;20199;-87
2023/09/27 09:08:42;;;;;;;11.40;6.80;;;16.60;99.90;;;;;;4960651;28;20303;-88
2023/09/27 09:11:12;;;;;;;9.35;6.63;;;16.90;99.90;;;;;;4954207;28;20187;-88
2023/09/27 09:14:03;;;;;;;11.13;6.93;;;16.90;99.90;;;;;;4978835;28;20214;-89
2023/09/27 09:16:44;;;;;;;12.90;7.63;;;16.70;99.90;;;;;;4980021;28;20186;-88
2023/09/27 09:19:31;;;;;;;13.23;7.38;;;16.70;99.90;;;;;;4978573;28;20271;-89
2023/09/27 09:22:11;;;;;;;18.70;8.02;;;16.60;99.90;;;;;;4975812;28;20286;-89
2023/09/27 09:24:41;;;;;;;10.90;7.57;;;16.80;99.90;;;;;;4972376;28;20187;-89
2023/09/27 09:27:16;;;;;;;13.20;7.93;;;16.90;99.90;;;;;;4967025;28;20207;-90
2023/09/27 09:29:46;;;;;;;12.35;7.45;;;16.90;99.90;;;;;;4983321;28;20191;-87
2023/09/27 09:32:22;;;;;;;14.68;8.90;;;16.90;99.90;;;;;;4982420;28;20214;-88
2023/09/27 09:34:54;;;;;;;17.02;8.50;;;17.20;99.90;;;;;;4957671;28;20211;-89
2023/09/27 09:37:35;;;;;;;10.95;7.47;;;17.40;99.90;;;;;;4973286;28;20693;-87
2023/09/27 09:40:14;;;;;;;17.15;8.60;;;17.50;99.90;;;;;;4960298;28;20192;-88
2023/09/27 09:42:43;;;;;;;11.73;7.72;;;17.60;99.90;;;;;;4985922;28;20246;-88
2023/09/27 09:45:12;;;;;;;13.43;8.35;;;17.80;99.90;;;;;;4966432;28;20199;-90
2023/09/27 09:47:43;;;;;;;13.65;8.45;;;17.90;99.90;;;;;;4983084;28;20199;-90
2023/09/27 09:50:18;;;;;;;13.27;8.48;;;17.80;99.90;;;;;;4984563;28;20716;-89
2023/09/27 09:52:59;;;;;;;14.05;7.90;;;17.80;99.90;;;;;;4983718;28;20187;-89
2023/09/27 09:55:33;;;;;;;13.38;8.93;;;17.90;99.90;;;;;;4978928;28;20188;-89
2023/09/27 09:58:38;;;;;;;13.63;7.93;;;18.00;99.90;;;;;;4972387;28;20219;-91
2023/09/27 10:01:07;;;;;;;13.07;8.07;;;18.10;99.90;;;;;;4959197;28;20531;-90
2023/09/27 10:03:35;;;;;;;12.88;9.02;;;17.90;99.90;;;;;;4965722;28;20219;-91
2023/09/27 10:06:05;;;;;;;14.65;8.95;;;18.10;99.90;;;;;;4950776;28;20654;-89
2023/09/27 10:08:34;;;;;;;16.15;8.43;;;18.30;99.90;;;;;;4970938;28;20184;-88
2023/09/27 10:11:06;;;;;;;14.07;7.95;;;18.40;99.90;;;;;;4964850;28;20213;-90
2023/09/27 10:13:38;;;;;;;13.77;9.38;;;18.40;99.90;;;;;;4960601;28;20227;-90
2023/09/27 10:16:10;;;;;;;14.18;8.98;;;18.50;99.90;;;;;;4951096;28;20603;-90
2023/09/27 10:18:41;;;;;;;16.15;8.90;;;18.70;99.90;;;;;;4944724;28;20314;-90
2023/09/27 10:21:13;;;;;;;13.55;8.70;;;18.70;99.90;;;;;;4939983;28;20219;-90
2023/09/27 10:23:46;;;;;;;13.57;8.98;;;18.80;99.90;;;;;;4965672;28;20207;-87
2023/09/27 10:26:26;;;;;;;16.85;9.20;;;18.70;99.90;;;;;;4973237;28;20586;-88
2023/09/27 10:32:02;;;;;;;11.73;8.55;;;19.00;99.90;;;;;;4909188;28;20214;-89
2023/09/27 10:34:30;;;;;;;14.02;9.60;;;19.00;99.90;;;;;;4965431;28;20582;-90
2023/09/27 10:37:00;;;;;;;15.13;9.93;;;19.20;99.90;;;;;;4957207;28;20199;-89
2023/09/27 10:39:30;;;;;;;14.05;8.38;;;19.10;99.90;;;;;;4965810;28;20180;-89
2023/09/27 10:41:58;;;;;;;15.00;9.10;;;19.10;99.90;;;;;;4964110;28;20613;-88
2023/09/27 10:44:28;;;;;;;15.70;8.93;;;19.00;99.90;;;;;;4981960;28;20243;-89
2023/09/27 10:47:03;;;;;;;12.50;8.88;;;18.80;99.90;;;;;;4982743;28;20270;-88
2023/09/27 10:49:40;;;;;;;12.82;8.65;;;18.90;99.90;;;;;;4982757;28;20202;-89
2023/09/27 10:52:18;;;;;;;14.15;9.52;;;18.90;99.90;;;;;;4960666;28;21155;-90
2023/09/27 10:54:46;;;;;;;17.27;8.73;;;19.00;99.90;;;;;;4964338;28;20199;-89
2023/09/27 10:57:14;;;;;;;12.40;9.20;;;19.10;99.90;;;;;;4965720;28;20238;-89
2023/09/27 10:59:47;;;;;;;11.60;9.13;;;19.50;99.90;;;;;;4953788;28;20674;-89
2023/09/27 11:02:30;;;;;;;19.33;9.52;;;19.70;99.90;;;;;;4961405;28;20187;-88
2023/09/27 11:04:58;;;;;;;17.42;9.30;;;19.60;99.90;;;;;;4966013;28;20226;-89
2023/09/27 11:07:49;;;;;;;15.95;8.88;;;19.50;99.90;;;;;;4950734;28;20208;-89
2023/09/27 11:10:28;;;;;;;12.00;8.68;;;19.20;99.90;;;;;;4964796;28;20540;-89
2023/09/27 11:13:10;;;;;;;16.70;9.73;;;19.20;99.90;;;;;;4982481;28;20195;-90
2023/09/27 11:15:42;;;;;;;12.10;8.25;;;19.00;99.90;;;;;;4982456;28;20200;-90
2023/09/27 11:18:10;;;;;;;17.30;9.45;;;19.10;99.90;;;;;;4963972;28;20198;-89
2023/09/27 11:20:42;;;;;;;14.15;9.30;;;19.40;99.90;;;;;;4947160;28;20335;-89
2023/09/27 11:23:10;;;;;;;14.35;8.50;;;19.40;99.90;;;;;;4925517;29;20192;-91
2023/09/27 11:25:38;;;;;;;11.85;8.68;;;19.30;99.90;;;;;;4939696;29;20201;-89
2023/09/27 11:28:05;;;;;;;14.40;9.32;;;19.30;99.90;;;;;;4948732;29;20192;-90
2023/09/27 11:30:34;;;;;;;12.93;8.52;;;19.50;99.90;;;;;;4925910;29;20208;-89
2023/09/27 11:33:06;;;;;;;12.60;8.30;;;19.60;99.90;;;;;;4936768;29;20612;-88
2023/09/27 11:35:34;;;;;;;15.82;8.90;;;19.60;99.90;;;;;;4947640;29;20219;-89
2023/09/27 11:38:11;;;;;;;12.88;8.63;;;19.60;99.90;;;;;;4934817;29;20192;-89
2023/09/27 11:40:42;;;;;;;13.60;8.77;;;19.50;99.90;;;;;;4927026;29;20215;-88
2023/09/27 11:43:12;;;;;;;14.73;9.15;;;19.60;99.90;;;;;;4946957;29;20191;-91
2023/09/27 11:45:46;;;;;;;14.38;9.15;;;19.50;99.90;;;;;;4941287;28;20960;-90
2023/09/27 11:48:15;;;;;;;13.27;8.60;;;19.70;99.90;;;;;;4935741;29;20204;-90
2023/09/27 11:50:43;;;;;;;13.25;8.98;;;20.10;99.90;;;;;;4930785;29;20198;-88
2023/09/27 11:53:12;;;;;;;13.00;8.88;;;20.70;99.90;;;;;;4944855;29;20667;-88
2023/09/27 11:55:41;;;;;;;16.15;9.15;;;20.80;99.90;;;;;;4934111;29;20267;-90
2023/09/27 11:58:09;;;;;;;14.43;8.73;;;21.00;99.90;;;;;;4919074;29;20205;-88
2023/09/27 12:00:36;;;;;;;11.75;8.65;;;21.10;99.90;;;;;;4941544;28;20371;-89
2023/09/27 12:03:04;;;;;;;12.63;10.07;;;20.90;99.90;;;;;;4939280;29;20566;-89
2023/09/27 12:05:37;;;;;;;16.00;10.07;;;20.90;99.90;;;;;;4928704;29;20259;-89
2023/09/27 12:08:07;;;;;;;14.68;10.20;;;21.10;99.90;;;;;;4931843;29;20204;-88
2023/09/27 12:10:34;;;;;;;15.20;9.50;;;20.80;99.90;;;;;;4925900;29;20197;-89
2023/09/27 12:13:02;;;;;;;17.73;10.55;;;20.90;99.90;;;;;;4940943;29;20200;-89
2023/09/27 12:15:30;;;;;;;21.10;11.00;;;21.00;99.90;;;;;;4936059;29;20878;-90
2023/09/27 12:17:58;;;;;;;17.60;10.27;;;21.20;99.90;;;;;;4945828;28;20669;-90
2023/09/27 12:20:27;;;;;;;18.55;10.18;;;21.30;99.90;;;;;;4934403;28;20319;-88
2023/09/27 12:23:08;;;;;;;14.15;9.93;;;21.20;99.90;;;;;;4927798;29;20200;-87
2023/09/27 12:25:38;;;;;;;14.95;10.80;;;21.00;99.90;;;;;;4940265;29;20703;-87
2023/09/27 12:28:06;;;;;;;17.13;10.98;;;21.20;99.90;;;;;;4939673;29;20200;-87
2023/09/27 12:30:34;;;;;;;14.98;10.68;;;21.30;99.90;;;;;;4939625;29;20188;-88
2023/09/27 12:33:02;;;;;;;17.65;10.32;;;21.50;99.90;;;;;;4923893;29;20199;-88
2023/09/27 12:35:31;;;;;;;16.17;10.57;;;21.50;99.90;;;;;;4944156;28;20751;-89
2023/09/27 12:38:06;;;;;;;17.40;11.63;;;21.50;99.90;;;;;;4950916;28;20197;-87
2023/09/27 12:40:34;;;;;;;14.52;10.98;;;21.70;99.90;;;;;;4944073;29;20196;-89
2023/09/27 12:43:05;;;;;;;15.43;10.75;;;21.60;99.90;;;;;;4936787;29;20260;-88
2023/09/27 12:45:37;;;;;;;15.57;10.65;;;22.00;99.90;;;;;;4927074;29;20668;-86
2023/09/27 12:48:06;;;;;;;18.50;11.52;;;22.00;99.90;;;;;;4934401;29;20249;-87
2023/09/27 12:50:40;;;;;;;15.50;11.13;;;22.00;99.90;;;;;;4940276;29;20197;-88
2023/09/27 12:53:08;;;;;;;20.60;11.32;;;22.20;99.90;;;;;;4943978;28;20618;-90
2023/09/27 12:55:40;;;;;;;16.33;11.02;;;22.00;99.90;;;;;;4933182;29;20204;-89
2023/09/27 12:58:16;;;;;;;15.73;10.95;;;22.20;99.90;;;;;;4939989;29;20193;-88